Time;durP1;ratioP1;P1;durP2;ratioP2;P2;SDS_P1;SDS_P2;PMS_P1;PMS_P2;Temp;Humidity;BMP_temperature;BMP_pressure;BME280_temperature;BME280_humidity;BME280_pressure;Samples;Min_cycle;Max_cycle;Signal;HPM_P1;HPM_P2
2022/10/09 00:02:52;;;;;;;;;;;9.20;99.90;;;;;;8425428;28;19927;-79
2022/10/09 00:06:53;;;;;;;;;;;9.10;99.90;;;;;;8422464;28;19919;-80
2022/10/09 00:10:55;;;;;;;;;;;9.10;99.90;;;;;;8426880;28;19924;-80
2022/10/09 00:14:56;;;;;;;;;;;9.10;99.90;;;;;;8433604;28;19923;-80
2022/10/09 00:18:58;;;;;;;;;;;9.00;99.90;;;;;;8426406;28;21943;-80
2022/10/09 00:23:00;;;;;;;;;;;9.00;99.90;;;;;;8435696;28;20014;-80
2022/10/09 00:27:01;;;;;;;;;;;9.00;99.90;;;;;;8427131;28;21552;-79
2022/10/09 00:31:04;;;;;;;;;;;8.90;99.90;;;;;;8411030;28;19920;-80
2022/10/09 00:35:05;;;;;;;;;;;8.90;99.90;;;;;;8424152;28;19931;-80
2022/10/09 00:39:07;;;;;;;;;;;8.90;99.90;;;;;;8422398;28;19924;-80
2022/10/09 00:43:17;;;;;;;;;;;8.90;99.90;;;;;;8417503;28;20263;-80
2022/10/09 00:47:21;;;;;;;;;;;8.80;99.90;;;;;;8425439;28;19920;-80
2022/10/09 00:51:23;;;;;;;;;;;8.80;99.90;;;;;;8428665;28;19942;-80
2022/10/09 00:55:26;;;;;;;;;;;8.80;99.90;;;;;;8408849;28;19955;-80
2022/10/09 00:59:28;;;;;;;;;;;8.80;99.90;;;;;;8432192;28;20023;-79
2022/10/09 01:03:30;;;;;;;;;;;8.70;99.90;;;;;;8430796;28;19928;-80
2022/10/09 01:07:44;;;;;;;;;;;8.70;99.90;;;;;;8417493;28;20007;-80
2022/10/09 01:11:54;;;;;;;;;;;8.70;99.90;;;;;;8438181;28;19926;-79
2022/10/09 01:16:22;;;;;;;;;;;8.60;99.90;;;;;;8420171;28;20010;-80
2022/10/09 01:20:43;;;;;;;;;;;8.60;99.90;;;;;;8431157;28;19920;-80
2022/10/09 01:24:58;;;;;;;;;;;8.60;99.90;;;;;;8417436;28;20305;-79
2022/10/09 01:29:08;;;;;;;;;;;8.50;99.90;;;;;;8431131;28;19920;-80
2022/10/09 01:33:10;;;;;;;;;;;8.50;99.90;;;;;;8444172;28;19919;-80
2022/10/09 01:37:12;;;;;;;;;;;8.50;99.90;;;;;;8419533;28;19920;-80
2022/10/09 01:41:14;;;;;;;;;;;8.40;99.90;;;;;;8428276;28;19920;-80
2022/10/09 01:45:16;;;;;;;;;;;8.40;99.90;;;;;;8440032;28;19989;-80
2022/10/09 01:49:36;;;;;;;;;;;8.40;99.90;;;;;;8433731;28;19920;-80
2022/10/09 01:53:38;;;;;;;;;;;8.40;99.90;;;;;;8431810;28;19920;-79
2022/10/09 01:57:45;;;;;;;;;;;8.30;99.90;;;;;;8429365;28;19970;-79
2022/10/09 02:01:47;;;;;;;;;;;8.30;99.90;;;;;;8433957;28;19933;-80
2022/10/09 02:05:51;;;;;;;;;;;8.30;99.90;;;;;;8437190;28;19920;-80
2022/10/09 02:09:53;;;;;;;;;;;8.30;99.90;;;;;;8426380;28;20006;-80
2022/10/09 02:13:55;;;;;;;;;;;8.30;99.90;;;;;;8436811;28;20049;-80
2022/10/09 02:18:01;;;;;;;;;;;8.20;99.90;;;;;;8431083;28;19919;-80
2022/10/09 02:22:09;;;;;;;;;;;8.20;99.90;;;;;;8434763;28;19920;-80
2022/10/09 02:26:11;;;;;;;;;;;8.20;99.90;;;;;;8427318;28;19919;-80
2022/10/09 02:30:14;;;;;;;;;;;8.20;99.90;;;;;;8440677;28;20273;-80
2022/10/09 02:34:16;;;;;;;;;;;8.10;99.90;;;;;;8419695;28;19927;-80
2022/10/09 02:38:18;;;;;;;;;;;8.10;99.90;;;;;;8424447;28;19926;-80
2022/10/09 02:42:20;;;;;;;;;;;8.10;99.90;;;;;;8433751;28;21080;-79
2022/10/09 02:46:22;;;;;;;;;;;8.20;99.90;;;;;;8432917;28;19924;-80
2022/10/09 02:50:24;;;;;;;;;;;8.10;99.90;;;;;;8414147;28;19940;-80
2022/10/09 02:54:25;;;;;;;;;;;8.10;99.90;;;;;;8437127;28;19927;-80
2022/10/09 02:58:31;;;;;;;;;;;8.10;99.90;;;;;;8435482;28;19996;-80
2022/10/09 03:02:32;;;;;;;;;;;8.10;99.90;;;;;;8433779;28;19920;-80
2022/10/09 03:06:34;;;;;;;;;;;8.10;99.90;;;;;;8434654;28;19920;-80
2022/10/09 03:10:36;;;;;;;;;;;8.10;99.90;;;;;;8411698;28;19926;-80
2022/10/09 03:14:37;;;;;;;;;;;8.20;99.90;;;;;;8437878;28;19926;-79
2022/10/09 03:18:39;;;;;;;;;;;8.10;99.90;;;;;;8434356;28;19919;-79
2022/10/09 03:22:41;;;;;;;;;;;8.10;99.90;;;;;;8420541;28;19962;-81
2022/10/09 03:26:43;;;;;;;;;;;8.10;99.90;;;;;;8420454;28;19985;-80
2022/10/09 03:30:44;;;;;;;;;;;8.10;99.90;;;;;;8429005;28;19931;-79
2022/10/09 03:34:46;;;;;;;;;;;8.00;99.90;;;;;;8429193;28;20039;-79
2022/10/09 03:38:47;;;;;;;;;;;8.00;99.90;;;;;;8424839;28;20320;-79
2022/10/09 03:42:49;;;;;;;;;;;7.90;99.90;;;;;;8417879;28;20370;-79
2022/10/09 03:46:51;;;;;;;;;;;7.90;99.90;;;;;;8436190;28;19949;-80
2022/10/09 03:50:53;;;;;;;;;;;7.90;99.90;;;;;;8434326;27;19920;-80
2022/10/09 03:54:54;;;;;;;;;;;7.90;99.90;;;;;;8432776;28;19919;-80
2022/10/09 03:58:56;;;;;;;;;;;7.90;99.90;;;;;;8430143;28;19930;-80
2022/10/09 04:02:57;;;;;;;;;;;7.90;99.90;;;;;;8410615;28;19928;-80
2022/10/09 04:06:59;;;;;;;;;;;8.00;99.90;;;;;;8408155;28;19973;-80
2022/10/09 04:11:02;;;;;;;;;;;8.00;99.90;;;;;;8414943;28;20379;-80
2022/10/09 04:15:04;;;;;;;;;;;8.00;99.90;;;;;;8404693;28;20290;-80
2022/10/09 04:19:05;;;;;;;;;;;8.00;99.90;;;;;;8395858;28;19920;-79
2022/10/09 04:23:07;;;;;;;;;;;7.90;99.90;;;;;;8405094;28;19928;-80
2022/10/09 04:27:09;;;;;;;;;;;7.90;99.90;;;;;;8402691;28;19920;-79
2022/10/09 04:31:10;;;;;;;;;;;7.90;99.90;;;;;;8409993;28;19920;-79
2022/10/09 04:35:12;;;;;;;;;;;7.90;99.90;;;;;;8402676;28;19935;-79
2022/10/09 04:39:13;;;;;;;;;;;8.00;99.90;;;;;;8408643;28;19920;-80
2022/10/09 04:43:15;;;;;;;;;;;8.00;99.90;;;;;;8406335;28;19934;-79
2022/10/09 04:47:17;;;;;;;;;;;8.00;99.90;;;;;;8395067;28;19932;-80
2022/10/09 04:51:18;;;;;;;;;;;7.90;99.90;;;;;;8415706;28;20275;-80
2022/10/09 04:55:20;;;;;;;;;;;7.90;99.90;;;;;;8406750;28;20118;-80
2022/10/09 04:59:21;;;;;;;;;;;7.90;99.90;;;;;;8413692;28;19925;-80
2022/10/09 05:03:24;;;;;;;;;;;7.90;99.90;;;;;;8432601;28;19926;-80
2022/10/09 05:07:26;;;;;;;;;;;7.90;99.90;;;;;;8406452;28;19941;-80
2022/10/09 05:11:27;;;;;;;;;;;7.90;99.90;;;;;;8422932;28;19920;-79
2022/10/09 05:15:29;;;;;;;;;;;7.90;99.90;;;;;;8418604;28;19966;-80
2022/10/09 05:19:31;;;;;;;;;;;7.80;99.90;;;;;;8434330;27;20351;-80
2022/10/09 05:23:34;;;;;;;;;;;7.80;99.90;;;;;;8436911;28;19926;-80
2022/10/09 05:27:36;;;;;;;;;;;7.80;99.90;;;;;;8425526;28;20430;-80
2022/10/09 05:31:37;;;;;;;;;;;7.80;99.90;;;;;;8427062;28;19934;-79
2022/10/09 05:35:39;;;;;;;;;;;7.80;99.90;;;;;;8432759;28;19938;-80
2022/10/09 05:39:40;;;;;;;;;;;7.80;99.90;;;;;;8403473;28;20007;-79
2022/10/09 05:43:43;;;;;;;;;;;7.80;99.90;;;;;;8418574;28;19942;-79
2022/10/09 05:47:45;;;;;;;;;;;7.80;99.90;;;;;;8428808;28;19934;-80
2022/10/09 05:51:48;;;;;;;;;;;7.80;99.90;;;;;;8419895;28;19940;-80
2022/10/09 05:55:50;;;;;;;;;;;7.80;99.90;;;;;;8432971;28;19923;-80
2022/10/09 05:59:51;;;;;;;;;;;7.80;99.90;;;;;;8416155;28;19984;-80
2022/10/09 06:03:54;;;;;;;;;;;7.80;99.90;;;;;;8415879;28;19924;-79
2022/10/09 06:07:56;;;;;;;;;;;7.80;99.90;;;;;;8420647;28;20014;-80
2022/10/09 06:11:57;;;;;;;;;;;7.80;99.90;;;;;;8419300;28;19927;-80
2022/10/09 06:15:59;;;;;;;;;;;7.80;99.90;;;;;;8427158;27;21340;-79
2022/10/09 06:20:00;;;;;;;;;;;7.80;99.90;;;;;;8413344;28;20252;-79
2022/10/09 06:24:03;;;;;;;;;;;7.80;99.90;;;;;;8409384;28;19919;-79
2022/10/09 06:28:04;;;;;;;;;;;7.80;99.90;;;;;;8437257;28;20003;-79
2022/10/09 06:32:06;;;;;;;;;;;7.90;99.90;;;;;;8429131;28;20000;-80
2022/10/09 06:36:09;;;;;;;;;;;7.90;99.90;;;;;;8448928;27;20008;-79
2022/10/09 06:40:11;;;;;;;;;;;7.90;99.90;;;;;;8438521;28;19972;-80
2022/10/09 06:44:12;;;;;;;;;;;8.00;99.90;;;;;;8431334;28;19924;-80
2022/10/09 06:48:17;;;;;;;;;;;8.00;99.90;;;;;;8424952;28;19926;-79
2022/10/09 06:52:18;;;;;;;;;;;8.10;99.90;;;;;;8426784;28;19920;-79
2022/10/09 06:56:21;;;;;;;;;;;8.10;99.90;;;;;;8436281;28;20444;-79
2022/10/09 07:00:23;;;;;;;;;;;8.20;99.90;;;;;;8412673;28;19932;-79
2022/10/09 07:04:25;;;;;;;;;;;8.20;99.90;;;;;;8415109;28;19973;-80
2022/10/09 07:08:26;;;;;;;;;;;8.30;99.90;;;;;;8434543;27;19919;-79
2022/10/09 07:12:28;;;;;;;;;;;8.30;99.90;;;;;;8429464;28;19920;-79
2022/10/09 07:16:31;;;;;;;;;;;8.40;99.90;;;;;;8426042;28;20361;-79
2022/10/09 07:20:34;;;;;;;;;;;8.50;99.90;;;;;;8426946;28;19927;-80
2022/10/09 07:24:36;;;;;;;;;;;8.50;99.90;;;;;;8433183;28;19966;-79
2022/10/09 07:28:38;;;;;;;;;;;8.60;99.90;;;;;;8437207;28;20492;-79
2022/10/09 07:32:39;;;;;;;;;;;8.70;99.90;;;;;;8429109;28;19959;-79
2022/10/09 07:36:41;;;;;;;;;;;8.80;99.90;;;;;;8425580;28;20462;-79
2022/10/09 07:40:43;;;;;;;;;;;8.80;99.90;;;;;;8431858;28;20010;-79
2022/10/09 07:44:44;;;;;;;;;;;8.90;99.90;;;;;;8431848;28;20386;-79
2022/10/09 07:48:46;;;;;;;;;;;9.00;99.90;;;;;;8417440;28;19926;-79
2022/10/09 07:52:48;;;;;;;;;;;9.10;99.90;;;;;;8414173;28;19969;-79
2022/10/09 07:56:50;;;;;;;;;;;9.30;99.90;;;;;;8436618;28;20331;-80
2022/10/09 08:00:51;;;;;;;;;;;9.40;99.90;;;;;;8422441;28;20062;-80
2022/10/09 08:04:53;;;;;;;;;;;9.50;99.90;;;;;;8421586;28;19919;-80
2022/10/09 08:08:55;;;;;;;;;;;9.60;99.90;;;;;;8429071;28;20366;-80
2022/10/09 08:12:57;;;;;;;;;;;9.80;99.90;;;;;;8429603;28;19930;-79
2022/10/09 08:16:59;;;;;;;;;;;9.90;99.90;;;;;;8436907;27;19932;-79
2022/10/09 08:21:02;;;;;;;;;;;10.10;99.90;;;;;;8432642;28;19924;-79
2022/10/09 08:25:07;;;;;;;;;;;10.20;99.90;;;;;;8421297;28;19923;-79
2022/10/09 08:29:12;;;;;;;;;;;10.30;99.90;;;;;;8439611;28;20109;-79
2022/10/09 08:33:14;;;;;;;;;;;10.50;99.90;;;;;;8427320;28;19930;-79
2022/10/09 08:37:15;;;;;;;;;;;10.60;99.90;;;;;;8442797;28;19927;-79
2022/10/09 08:41:36;;;;;;;;;;;10.80;99.90;;;;;;8431369;28;19923;-79
2022/10/09 08:45:38;;;;;;;;;;;11.00;99.90;;;;;;8420049;28;19920;-79
2022/10/09 08:49:47;;;;;;;;;;;11.10;99.90;;;;;;8436029;28;19946;-79
2022/10/09 08:53:53;;;;;;;;;;;11.20;99.90;;;;;;8408774;28;20335;-79
2022/10/09 08:57:56;;;;;;;;;;;11.30;99.90;;;;;;8443839;28;19926;-79
2022/10/09 09:02:12;;;;;;;;;;;11.40;99.90;;;;;;8426586;28;19926;-78
2022/10/09 09:06:33;;;;;;;;;;;11.50;99.90;;;;;;8410634;28;19924;-79
2022/10/09 09:10:55;;;;;;;;;;;11.70;99.90;;;;;;8440925;28;20415;-78
2022/10/09 09:15:00;;;;;;;;;;;11.90;99.90;;;;;;8413561;28;19923;-79
2022/10/09 09:19:02;;;;;;;;;;;12.00;99.90;;;;;;8422155;28;20011;-78
2022/10/09 09:23:08;;;;;;;;;;;12.20;99.90;;;;;;8433324;28;19966;-79
2022/10/09 09:27:15;;;;;;;;;;;12.40;99.90;;;;;;8429496;28;19971;-79
2022/10/09 09:31:19;;;;;;;;;;;12.70;99.90;;;;;;8432956;28;19934;-79
2022/10/09 09:35:28;;;;;;;;;;;13.10;99.90;;;;;;8432288;28;19935;-79
2022/10/09 09:39:31;;;;;;;;;;;13.30;99.90;;;;;;8432394;28;19924;-79
2022/10/09 09:43:53;;;;;;;;;;;13.50;99.90;;;;;;8433040;28;20447;-79
2022/10/09 09:47:58;;;;;;;;;;;13.50;99.90;;;;;;8437908;28;19924;-79
2022/10/09 09:52:01;;;;;;;;;;;13.60;99.90;;;;;;8434432;28;19920;-79
2022/10/09 09:56:03;;;;;;;;;;;13.60;99.90;;;;;;8418653;28;19920;-79
2022/10/09 10:00:16;;;;;;;;;;;13.70;99.90;;;;;;8430794;28;19932;-78
2022/10/09 10:04:19;;;;;;;;;;;13.70;99.90;;;;;;8429163;28;19932;-79
2022/10/09 10:08:21;;;;;;;;;;;13.70;99.90;;;;;;8442260;28;19920;-79
2022/10/09 10:12:23;;;;;;;;;;;13.90;99.90;;;;;;8451992;28;19943;-79
2022/10/09 10:16:26;;;;;;;;;;;14.20;99.90;;;;;;8418347;28;19924;-79
2022/10/09 10:20:29;;;;;;;;;;;14.70;99.90;;;;;;8424977;28;19927;-79
2022/10/09 10:24:32;;;;;;;;;;;15.20;99.90;;;;;;8443175;28;19926;-79
2022/10/09 10:28:41;;;;;;;;;;;15.60;99.90;;;;;;8422557;28;20022;-78
2022/10/09 10:32:48;;;;;;;;;;;16.00;99.90;;;;;;8416191;28;20490;-80
2022/10/09 10:37:00;;;;;;;;;;;16.30;99.90;;;;;;8409230;28;20259;-80
2022/10/09 10:41:03;;;;;;;;;;;16.80;99.90;;;;;;8395475;28;20000;-79
2022/10/09 10:45:12;;;;;;;;;;;17.20;99.90;;;;;;8390926;28;19928;-79
2022/10/09 10:49:21;;;;;;;;;;;17.30;99.90;;;;;;8419784;28;19926;-79
2022/10/09 10:58:26;;;;;;;;;;;17.70;99.90;;;;;;8412817;28;19914;-78
2022/10/09 11:02:52;;;;;;;;;;;18.10;99.90;;;;;;8412560;28;19924;-79
2022/10/09 11:07:00;;;;;;;;;;;18.20;99.90;;;;;;8410891;28;20010;-78
2022/10/09 11:11:16;;;;;;;;;;;18.40;99.90;;;;;;8412772;28;19924;-78
2022/10/09 11:15:18;;;;;;;;;;;18.60;99.90;;;;;;8392225;28;19942;-79
2022/10/09 11:19:38;;;;;;;;;;;18.60;99.90;;;;;;8415428;28;20339;-79
2022/10/09 11:23:54;;;;;;;;;;;18.50;99.90;;;;;;8412101;28;19928;-78
2022/10/09 11:28:16;;;;;;;;;;;18.40;99.90;;;;;;8414129;28;19928;-79
2022/10/09 11:32:25;;;;;;;;;;;18.40;99.90;;;;;;8384312;28;19928;-78
2022/10/09 11:36:31;;;;;;;;;;;18.30;99.90;;;;;;8405869;28;20014;-78
2022/10/09 11:40:37;;;;;;;;;;;18.30;99.90;;;;;;8393422;28;20293;-78
2022/10/09 11:44:52;;;;;;;;;;;18.40;99.90;;;;;;8420884;28;19920;-79
2022/10/09 11:48:59;;;;;;;;;;;18.50;99.90;;;;;;8420808;28;19920;-78
2022/10/09 11:53:07;;;;;;;;;;;18.70;99.90;;;;;;8431711;27;20398;-79
2022/10/09 11:57:09;;;;;;;;;;;19.00;99.90;;;;;;8396821;28;19934;-78
2022/10/09 12:01:23;;;;;;;;;;;19.00;99.90;;;;;;8405134;28;19934;-78
2022/10/09 12:05:42;;;;;;;;;;;19.10;99.90;;;;;;8392835;28;19930;-78
2022/10/09 12:09:47;;;;;;;;;;;19.00;99.90;;;;;;8397231;28;19920;-79
2022/10/09 12:13:50;;;;;;;;;;;18.80;99.90;;;;;;8391978;28;20375;-79
2022/10/09 12:17:52;;;;;;;;;;;18.60;99.90;;;;;;8396289;28;19927;-79
2022/10/09 12:21:54;;;;;;;;;;;18.40;99.90;;;;;;8377639;28;19930;-79
2022/10/09 12:25:56;;;;;;;;;;;18.30;99.90;;;;;;8405854;28;19924;-79
2022/10/09 12:30:15;;;;;;;;;;;18.20;99.90;;;;;;8398679;28;19924;-79
2022/10/09 12:34:21;;;;;;;;;;;18.20;99.90;;;;;;8388995;28;19935;-80
2022/10/09 12:38:24;;;;;;;;;;;18.30;99.90;;;;;;8395586;28;19935;-80
2022/10/09 12:42:26;;;;;;;;;;;18.40;99.90;;;;;;8395991;28;19935;-79
2022/10/09 12:46:35;;;;;;;;;;;18.40;99.90;;;;;;8374854;28;20283;-79
2022/10/09 12:50:37;;;;;;;;;;;18.30;99.90;;;;;;8413163;28;19990;-80
2022/10/09 12:54:41;;;;;;;;;;;18.20;99.90;;;;;;8391657;28;20020;-79
2022/10/09 12:58:43;;;;;;;;;;;18.00;99.90;;;;;;8403268;28;19920;-80
2022/10/09 13:02:45;;;;;;;;;;;17.90;99.90;;;;;;8402408;28;20291;-79
2022/10/09 13:06:48;;;;;;;;;;;17.80;99.90;;;;;;8402044;28;20391;-79
2022/10/09 13:10:50;;;;;;;;;;;17.80;99.90;;;;;;8384769;28;20023;-80
2022/10/09 13:14:55;;;;;;;;;;;17.80;99.90;;;;;;8405744;28;19932;-79
2022/10/09 13:18:57;;;;;;;;;;;17.80;99.90;;;;;;8399002;28;19931;-80
2022/10/09 13:23:00;;;;;;;;;;;18.00;99.90;;;;;;8399209;28;19981;-79
2022/10/09 13:27:02;;;;;;;;;;;18.00;99.90;;;;;;8403913;28;19982;-80
2022/10/09 13:31:05;;;;;;;;;;;18.00;99.90;;;;;;8403057;28;19927;-79
2022/10/09 13:35:07;;;;;;;;;;;18.00;99.90;;;;;;8394717;28;19928;-78
2022/10/09 13:39:12;;;;;;;;;;;18.10;99.90;;;;;;8419618;28;19927;-79
2022/10/09 13:43:17;;;;;;;;;;;18.20;99.90;;;;;;8405968;28;19924;-79
2022/10/09 13:47:19;;;;;;;;;;;18.30;99.90;;;;;;8404772;28;19929;-80
2022/10/09 13:51:24;;;;;;;;;;;18.30;99.90;;;;;;8404796;28;19928;-79
2022/10/09 13:55:26;;;;;;;;;;;18.30;99.90;;;;;;8402372;28;19924;-80
2022/10/09 13:59:30;;;;;;;;;;;18.40;99.90;;;;;;8415979;28;19920;-79
2022/10/09 14:03:31;;;;;;;;;;;18.50;99.90;;;;;;8402085;28;19995;-79
2022/10/09 14:07:33;;;;;;;;;;;18.60;99.90;;;;;;8401308;28;19946;-79
2022/10/09 14:11:35;;;;;;;;;;;18.80;99.90;;;;;;8400708;28;20287;-79
2022/10/09 14:15:40;;;;;;;;;;;19.20;99.90;;;;;;8402481;28;20291;-78
2022/10/09 14:19:41;;;;;;;;;;;19.60;99.90;;;;;;8396745;28;20394;-78
2022/10/09 14:23:43;;;;;;;;;;;20.00;99.90;;;;;;8383012;28;20469;-79
2022/10/09 14:27:45;;;;;;;;;;;20.30;99.90;;;;;;8405176;28;20335;-79
2022/10/09 14:31:48;;;;;;;;;;;20.50;99.90;;;;;;8396835;28;20190;-82
2022/10/09 14:35:50;;;;;;;;;;;20.50;99.90;;;;;;8397706;28;19931;-79
2022/10/09 14:39:51;;;;;;;;;;;20.40;99.90;;;;;;8406741;28;19928;-79
2022/10/09 14:43:55;;;;;;;;;;;20.20;99.90;;;;;;8409943;28;19927;-79
2022/10/09 14:47:57;;;;;;;;;;;19.90;99.90;;;;;;8404757;28;20011;-81
2022/10/09 14:51:58;;;;;;;;;;;19.60;99.90;;;;;;8401683;28;19936;-79
2022/10/09 14:56:01;;;;;;;;;;;19.30;99.90;;;;;;8402881;28;19934;-79
2022/10/09 15:00:04;;;;;;;;;;;19.10;99.90;;;;;;8392374;28;19924;-79
2022/10/09 15:04:05;;;;;;;;;;;19.00;99.90;;;;;;8388179;28;19920;-80
2022/10/09 15:08:07;;;;;;;;;;;18.80;99.90;;;;;;8406274;28;19935;-79
2022/10/09 15:12:08;;;;;;;;;;;18.70;99.90;;;;;;8404100;28;19930;-80
2022/10/09 15:16:12;;;;;;;;;;;18.70;99.90;;;;;;8392170;28;20376;-80
2022/10/09 15:20:14;;;;;;;;;;;18.60;99.90;;;;;;8397872;28;19928;-80
2022/10/09 15:24:16;;;;;;;;;;;18.50;99.90;;;;;;8387831;28;19920;-79
2022/10/09 15:28:18;;;;;;;;;;;18.50;99.90;;;;;;8394676;28;20589;-80
2022/10/09 15:32:19;;;;;;;;;;;18.50;99.90;;;;;;8406591;28;19999;-79
2022/10/09 15:36:21;;;;;;;;;;;18.50;99.90;;;;;;8390542;28;19928;-79
2022/10/09 15:40:23;;;;;;;;;;;18.50;99.90;;;;;;8396138;28;20298;-79
2022/10/09 15:44:24;;;;;;;;;;;18.50;99.90;;;;;;8397385;28;19924;-79
2022/10/09 15:48:26;;;;;;;;;;;18.50;99.90;;;;;;8393345;28;20260;-79
2022/10/09 15:52:28;;;;;;;;;;;18.40;99.90;;;;;;8403137;28;19924;-79
2022/10/09 15:56:29;;;;;;;;;;;18.40;99.90;;;;;;8402455;28;20011;-79
2022/10/09 16:00:36;;;;;;;;;;;18.40;99.90;;;;;;8400200;28;19986;-78
2022/10/09 16:04:38;;;;;;;;;;;18.30;99.90;;;;;;8394613;28;19998;-79
2022/10/09 16:08:40;;;;;;;;;;;18.30;99.90;;;;;;8377331;28;19924;-78
2022/10/09 16:12:42;;;;;;;;;;;18.20;99.90;;;;;;8401146;28;21571;-78
2022/10/09 16:16:47;;;;;;;;;;;18.10;99.90;;;;;;8398017;28;19931;-79
2022/10/09 16:20:49;;;;;;;;;;;17.90;99.90;;;;;;8399339;28;19923;-78
2022/10/09 16:24:51;;;;;;;;;;;17.80;99.90;;;;;;8403110;28;19926;-78
2022/10/09 16:28:52;;;;;;;;;;;17.70;99.90;;;;;;8397615;28;21587;-79
2022/10/09 16:32:54;;;;;;;;;;;17.60;99.90;;;;;;8402486;28;19975;-79
2022/10/09 16:36:58;;;;;;;;;;;17.50;99.90;;;;;;8409130;28;19931;-78
2022/10/09 16:41:00;;;;;;;;;;;17.40;99.90;;;;;;8409868;28;19920;-79
2022/10/09 16:45:03;;;;;;;;;;;17.30;99.90;;;;;;8410218;28;19920;-79
2022/10/09 16:49:04;;;;;;;;;;;17.20;99.90;;;;;;8406856;28;19963;-79
2022/10/09 16:53:06;;;;;;;;;;;17.10;99.90;;;;;;8407727;28;20003;-79
2022/10/09 16:57:08;;;;;;;;;;;17.10;99.90;;;;;;8409116;28;19927;-79
2022/10/09 17:01:10;;;;;;;;;;;17.00;99.90;;;;;;8396881;28;19924;-79
2022/10/09 17:05:12;;;;;;;;;;;16.80;99.90;;;;;;8422637;27;19974;-79
2022/10/09 17:09:14;;;;;;;;;;;16.70;99.90;;;;;;8397124;28;19926;-79
2022/10/09 17:13:15;;;;;;;;;;;16.60;99.90;;;;;;8416818;28;19923;-79
2022/10/09 17:17:17;;;;;;;;;;;16.40;99.90;;;;;;8407198;28;19934;-78
2022/10/09 17:21:19;;;;;;;;;;;16.20;99.90;;;;;;8413451;28;19929;-79
2022/10/09 17:25:20;;;;;;;;;;;16.00;99.90;;;;;;8417256;28;20266;-79
2022/10/09 17:29:22;;;;;;;;;;;15.90;99.90;;;;;;8418153;28;19930;-79
2022/10/09 17:33:23;;;;;;;;;;;15.70;99.90;;;;;;8404821;28;20283;-79
2022/10/09 17:37:25;;;;;;;;;;;15.50;99.90;;;;;;8407506;28;19928;-79
2022/10/09 17:41:27;;;;;;;;;;;15.40;99.90;;;;;;8422372;27;20023;-79
2022/10/09 17:45:29;;;;;;;;;;;15.20;99.90;;;;;;8413708;28;19927;-80
2022/10/09 17:49:36;;;;;;;;;;;15.10;99.90;;;;;;8407697;28;19920;-79
2022/10/09 17:53:37;;;;;;;;;;;14.90;99.90;;;;;;8415422;28;19920;-80
2022/10/09 17:57:39;;;;;;;;;;;14.80;99.90;;;;;;8392164;28;19935;-80
2022/10/09 18:01:41;;;;;;;;;;;14.70;99.90;;;;;;8398425;28;20425;-81
2022/10/09 18:05:44;;;;;;;;;;;14.60;99.90;;;;;;8378742;28;19935;-80
2022/10/09 18:09:48;;;;;;;;;;;14.50;99.90;;;;;;8380039;28;19928;-80
2022/10/09 18:13:50;;;;;;;;;;;14.50;99.90;;;;;;8393472;28;19934;-79
2022/10/09 18:17:51;;;;;;;;;;;14.40;99.90;;;;;;8395942;28;19958;-80
2022/10/09 18:21:55;;;;;;;;;;;14.40;99.90;;;;;;8399047;28;20269;-79
2022/10/09 18:25:57;;;;;;;;;;;14.30;99.90;;;;;;8396495;28;19931;-79
2022/10/09 18:29:59;;;;;;;;;;;14.30;99.90;;;;;;8391465;28;20023;-80
2022/10/09 18:34:00;;;;;;;;;;;14.20;99.90;;;;;;8394301;28;19950;-79
2022/10/09 18:38:02;;;;;;;;;;;14.10;99.90;;;;;;8379898;28;19920;-79
2022/10/09 18:42:04;;;;;;;;;;;14.00;99.90;;;;;;8383305;28;20693;-80
2022/10/09 18:46:06;;;;;;;;;;;13.90;99.90;;;;;;8399251;28;20420;-79
2022/10/09 18:50:09;;;;;;;;;;;13.80;99.90;;;;;;8384244;28;19923;-79
2022/10/09 18:54:12;;;;;;;;;;;13.70;99.90;;;;;;8402858;28;20030;-79
2022/10/09 18:58:19;;;;;;;;;;;13.60;99.90;;;;;;8401284;28;19927;-79
2022/10/09 19:02:25;;;;;;;;;;;13.60;99.90;;;;;;8378579;28;20362;-79
2022/10/09 19:06:26;;;;;;;;;;;13.50;99.90;;;;;;8397897;28;20015;-79
2022/10/09 19:10:28;;;;;;;;;;;13.50;99.90;;;;;;8395562;28;19924;-79
2022/10/09 19:14:29;;;;;;;;;;;13.40;99.90;;;;;;8396188;28;19924;-79
2022/10/09 19:18:33;;;;;;;;;;;13.40;99.90;;;;;;8408384;28;19920;-80
2022/10/09 19:22:35;;;;;;;;;;;13.30;99.90;;;;;;8395735;28;19923;-79
2022/10/09 19:26:36;;;;;;;;;;;13.20;99.90;;;;;;8381774;28;20340;-79
2022/10/09 19:30:38;;;;;;;;;;;13.10;99.90;;;;;;8400094;28;19926;-79
2022/10/09 19:34:40;;;;;;;;;;;13.10;99.90;;;;;;8386023;28;19924;-79
2022/10/09 19:38:42;;;;;;;;;;;13.00;99.90;;;;;;8392028;28;19920;-79
2022/10/09 19:42:44;;;;;;;;;;;13.00;99.90;;;;;;8391026;28;19927;-79
2022/10/09 19:46:45;;;;;;;;;;;13.00;99.90;;;;;;8397141;28;19928;-79
2022/10/09 19:50:47;;;;;;;;;;;12.90;99.90;;;;;;8406885;28;19978;-79
2022/10/09 19:54:48;;;;;;;;;;;12.90;99.90;;;;;;8393793;28;20364;-79
2022/10/09 19:58:51;;;;;;;;;;;12.80;99.90;;;;;;8397211;28;19934;-80
2022/10/09 20:02:52;;;;;;;;;;;12.80;99.90;;;;;;8396524;28;19930;-79
2022/10/09 20:06:54;;;;;;;;;;;12.80;99.90;;;;;;8398794;28;19928;-79
2022/10/09 20:10:56;;;;;;;;;;;12.70;99.90;;;;;;8395141;28;19931;-79
2022/10/09 20:14:58;;;;;;;;;;;12.70;99.90;;;;;;8380837;28;19919;-79
2022/10/09 20:19:00;;;;;;;;;;;12.70;99.90;;;;;;8399224;28;19920;-79
2022/10/09 20:23:02;;;;;;;;;;;12.70;99.90;;;;;;8392045;28;20355;-79
2022/10/09 20:27:03;;;;;;;;;;;12.80;99.90;;;;;;8377429;28;19920;-79
2022/10/09 20:31:06;;;;;;;;;;;12.80;99.90;;;;;;8373358;28;19920;-79
2022/10/09 20:35:08;;;;;;;;;;;12.90;99.90;;;;;;8398446;28;19924;-79
2022/10/09 20:39:11;;;;;;;;;;;12.90;99.90;;;;;;8415612;28;19942;-79
2022/10/09 20:43:13;;;;;;;;;;;12.90;99.90;;;;;;8394248;28;19921;-79
2022/10/09 20:47:14;;;;;;;;;;;12.90;99.90;;;;;;8390402;28;19928;-79
2022/10/09 20:51:17;;;;;;;;;;;12.90;99.90;;;;;;8399572;28;20007;-80
2022/10/09 20:55:19;;;;;;;;;;;12.90;99.90;;;;;;8386171;28;19924;-79
2022/10/09 20:59:20;;;;;;;;;;;13.00;99.90;;;;;;8387997;28;20309;-80
2022/10/09 21:03:22;;;;;;;;;;;13.00;99.90;;;;;;8387649;28;19928;-79
2022/10/09 21:07:24;;;;;;;;;;;13.00;99.90;;;;;;8390224;28;19924;-79
2022/10/09 21:11:25;;;;;;;;;;;13.00;99.90;;;;;;8380963;28;20255;-79
2022/10/09 21:15:27;;;;;;;;;;;13.00;99.90;;;;;;8393670;28;19921;-79
2022/10/09 21:19:28;;;;;;;;;;;13.00;99.90;;;;;;8373963;28;19927;-79
2022/10/09 21:23:30;;;;;;;;;;;13.00;99.90;;;;;;8388804;28;19928;-79
2022/10/09 21:27:32;;;;;;;;;;;13.00;99.90;;;;;;8392790;28;20354;-79
2022/10/09 21:31:33;;;;;;;;;;;13.00;99.90;;;;;;8400554;28;20397;-79
2022/10/09 21:35:43;;;;;;;;;;;13.00;99.90;;;;;;8399313;28;20015;-79
2022/10/09 21:39:44;;;;;;;;;;;12.90;99.90;;;;;;8383228;28;19924;-79
2022/10/09 21:43:46;;;;;;;;;;;12.90;99.90;;;;;;8392444;28;19928;-80
2022/10/09 21:47:47;;;;;;;;;;;12.90;99.90;;;;;;8401287;28;19920;-79
2022/10/09 21:51:49;;;;;;;;;;;12.80;99.90;;;;;;8431222;28;19919;-79
2022/10/09 21:55:51;;;;;;;;;;;12.80;99.90;;;;;;8409186;28;19920;-80
2022/10/09 21:59:53;;;;;;;;;;;12.80;99.90;;;;;;8395451;28;19924;-79
2022/10/09 22:03:54;;;;;;;;;;;12.80;99.90;;;;;;8399984;28;19923;-79
2022/10/09 22:07:56;;;;;;;;;;;12.80;99.90;;;;;;8387590;28;19950;-80
2022/10/09 22:11:59;;;;;;;;;;;12.80;99.90;;;;;;8408921;28;20299;-79
2022/10/09 22:16:07;;;;;;;;;;;12.70;99.90;;;;;;8423150;27;19972;-79
2022/10/09 22:20:09;;;;;;;;;;;12.70;99.90;;;;;;8398414;28;19954;-80
2022/10/09 22:24:11;;;;;;;;;;;12.70;99.90;;;;;;8412219;28;19930;-79
2022/10/09 22:28:12;;;;;;;;;;;12.60;99.90;;;;;;8396841;28;19928;-80
2022/10/09 22:32:14;;;;;;;;;;;12.60;99.90;;;;;;8392843;28;19924;-79
2022/10/09 22:36:16;;;;;;;;;;;12.60;99.90;;;;;;8391914;28;19934;-79
2022/10/09 22:45:22;;;;;;;;;;;12.50;99.90;;;;;;8393301;28;19918;-79
2022/10/09 22:49:24;;;;;;;;;;;12.50;99.90;;;;;;8412149;28;20012;-79
2022/10/09 22:53:25;;;;;;;;;;;12.50;99.90;;;;;;8419475;28;19924;-78
2022/10/09 22:57:27;;;;;;;;;;;12.50;99.90;;;;;;8384221;28;19924;-79
2022/10/09 23:01:39;;;;;;;;;;;12.40;99.90;;;;;;8398686;28;19935;-79
2022/10/09 23:05:41;;;;;;;;;;;12.40;99.90;;;;;;8399449;28;19977;-79
2022/10/09 23:09:43;;;;;;;;;;;12.40;99.90;;;;;;8382517;28;19920;-79
2022/10/09 23:13:45;;;;;;;;;;;12.30;99.90;;;;;;8392295;28;19935;-79
2022/10/09 23:17:46;;;;;;;;;;;12.30;99.90;;;;;;8395756;28;19927;-79
2022/10/09 23:21:48;;;;;;;;;;;12.20;99.90;;;;;;8395279;28;20449;-79
2022/10/09 23:25:49;;;;;;;;;;;12.20;99.90;;;;;;8396799;28;19939;-80
2022/10/09 23:29:51;;;;;;;;;;;12.10;99.90;;;;;;8397553;28;19920;-79
2022/10/09 23:33:53;;;;;;;;;;;12.10;99.90;;;;;;8393458;28;19933;-80
2022/10/09 23:37:55;;;;;;;;;;;12.00;99.90;;;;;;8396770;28;20031;-80
2022/10/09 23:41:56;;;;;;;;;;;12.00;99.90;;;;;;8392966;28;19932;-79
2022/10/09 23:45:59;;;;;;;;;;;11.90;99.90;;;;;;8395505;28;19920;-79
2022/10/09 23:50:01;;;;;;;;;;;11.80;99.90;;;;;;8405554;28;20015;-79
2022/10/09 23:54:03;;;;;;;;;;;11.80;99.90;;;;;;8420556;28;19942;-80